createdAt,value
2023-01-10T00:02:41.949Z,9.12
2023-01-10T00:05:39.672Z,9.11
2023-01-10T00:08:37.343Z,9.09
2023-01-10T00:11:52.828Z,9.07
2023-01-10T00:14:50.602Z,9.04
2023-01-10T00:17:48.061Z,9.08
2023-01-10T00:20:46.411Z,9.11
2023-01-10T00:23:44.295Z,9.11
2023-01-10T00:26:44.506Z,9.17
2023-01-10T00:29:42.408Z,9.16
2023-01-10T00:32:39.860Z,9.11
2023-01-10T00:35:37.596Z,9.06
2023-01-10T00:38:35.096Z,9.03
2023-01-10T00:41:55.903Z,8.98
2023-01-10T00:44:53.463Z,8.94
2023-01-10T00:47:51.351Z,8.94
2023-01-10T00:50:48.776Z,8.91
2023-01-10T00:53:46.767Z,8.91
2023-01-10T00:56:44.225Z,8.90
2023-01-10T00:59:42.093Z,8.89
2023-01-10T01:02:39.935Z,8.89
2023-01-10T01:05:37.944Z,8.90
2023-01-10T01:08:35.639Z,8.89
2023-01-10T01:11:33.052Z,8.86
2023-01-10T01:14:30.701Z,8.81
2023-01-10T01:17:28.154Z,8.78
2023-01-10T01:20:25.954Z,8.75
2023-01-10T01:23:23.391Z,8.69
2023-01-10T01:26:21.283Z,8.63
2023-01-10T01:29:18.714Z,8.61
2023-01-10T01:32:16.500Z,8.57
2023-01-10T01:35:14.464Z,8.56
2023-01-10T01:38:11.925Z,8.45
2023-01-10T01:41:29.523Z,8.34
2023-01-10T01:44:26.952Z,8.23
2023-01-10T01:47:25.524Z,8.34
2023-01-10T01:50:22.946Z,8.44
2023-01-10T01:53:21.256Z,8.42
2023-01-10T01:56:18.895Z,8.42
2023-01-10T01:59:16.322Z,8.48
2023-01-10T02:02:14.640Z,8.46
2023-01-10T02:05:12.158Z,8.34
2023-01-10T02:08:09.803Z,8.26
2023-01-10T02:11:08.595Z,8.30
2023-01-10T02:14:06.186Z,8.33
2023-01-10T02:17:04.321Z,8.42
2023-01-10T02:20:01.840Z,8.49
2023-01-10T02:23:00.055Z,8.44
2023-01-10T02:25:57.506Z,8.28
2023-01-10T02:28:55.280Z,8.14
2023-01-10T02:31:52.740Z,8.05
2023-01-10T02:34:50.505Z,7.99
2023-01-10T02:37:48.116Z,7.94
2023-01-10T02:40:45.822Z,7.86
2023-01-10T02:43:43.241Z,7.81
2023-01-10T02:46:41.132Z,7.75
2023-01-10T02:49:38.843Z,7.68
2023-01-10T02:52:36.287Z,7.66
2023-01-10T02:55:33.914Z,7.72
2023-01-10T02:58:31.358Z,7.80
2023-01-10T03:01:29.047Z,7.83
2023-01-10T03:04:26.957Z,7.85
2023-01-10T03:07:24.727Z,7.85
2023-01-10T03:10:22.441Z,7.82
2023-01-10T03:13:19.868Z,7.78
2023-01-10T03:16:17.582Z,7.74
2023-01-10T03:19:15.043Z,7.71
2023-01-10T03:22:12.840Z,7.68
2023-01-10T03:25:10.280Z,7.65
2023-01-10T03:28:07.976Z,7.63
2023-01-10T03:31:05.457Z,7.61
2023-01-10T03:34:03.298Z,7.59
2023-01-10T03:37:00.988Z,8.51
2023-01-10T03:39:58.408Z,9.43
2023-01-10T03:43:13.788Z,9.93
2023-01-10T03:46:11.326Z,10.77
2023-01-10T03:49:09.076Z,11.44
2023-01-10T03:52:06.800Z,11.85
2023-01-10T03:55:05.488Z,12.19
2023-01-10T03:58:03.107Z,12.24
2023-01-10T04:01:00.745Z,12.07
2023-01-10T04:03:58.612Z,11.86
2023-01-10T04:06:56.098Z,11.70
2023-01-10T04:09:53.793Z,11.63
2023-01-10T04:12:51.217Z,11.72
2023-01-10T04:15:48.931Z,11.44
2023-01-10T04:18:46.352Z,11.37
2023-01-10T04:21:44.028Z,11.11
2023-01-10T04:24:41.478Z,10.77
2023-01-10T04:27:39.156Z,10.45
2023-01-10T04:30:36.865Z,10.20
2023-01-10T04:33:34.310Z,10.14
2023-01-10T04:36:31.923Z,10.18
2023-01-10T04:39:29.352Z,10.42
2023-01-10T04:42:27.092Z,10.68
2023-01-10T04:45:24.611Z,10.94
2023-01-10T04:48:22.271Z,11.06
2023-01-10T04:51:19.711Z,11.15
2023-01-10T04:54:17.315Z,11.25
2023-01-10T04:57:14.744Z,11.32
2023-01-10T05:00:13.696Z,11.25
2023-01-10T05:03:11.206Z,11.00
2023-01-10T05:06:08.918Z,10.63
2023-01-10T05:09:06.521Z,10.26
2023-01-10T05:12:03.961Z,10.03
2023-01-10T05:15:02.206Z,9.98
2023-01-10T05:17:59.727Z,10.20
2023-01-10T05:20:57.549Z,10.06
2023-01-10T05:23:54.983Z,9.77
2023-01-10T05:26:52.773Z,9.51
2023-01-10T05:29:50.192Z,9.38
2023-01-10T05:32:47.894Z,9.29
2023-01-10T05:35:45.329Z,9.18
2023-01-10T05:38:43.021Z,9.09
2023-01-10T05:41:40.615Z,9.08
2023-01-10T05:44:38.244Z,9.09
2023-01-10T05:47:35.691Z,9.03
2023-01-10T05:50:33.501Z,8.99
2023-01-10T05:53:30.929Z,8.97
2023-01-10T05:56:29.628Z,8.92
2023-01-10T05:59:28.640Z,9.02
2023-01-10T06:02:26.841Z,9.05
2023-01-10T06:05:24.476Z,9.00
2023-01-10T06:08:22.531Z,9.01
2023-01-10T06:11:19.962Z,9.17
2023-01-10T06:14:19.708Z,9.33
2023-01-10T06:17:17.137Z,9.27
2023-01-10T06:20:14.932Z,9.33
2023-01-10T06:23:12.396Z,9.45
2023-01-10T06:26:10.156Z,9.52
2023-01-10T06:29:07.614Z,9.57
2023-01-10T06:32:05.335Z,9.60
2023-01-10T06:35:02.891Z,9.55
2023-01-10T06:38:00.909Z,9.50
2023-01-10T06:40:58.364Z,9.46
2023-01-10T06:43:56.021Z,9.40
2023-01-10T06:46:53.472Z,9.34
2023-01-10T06:49:51.284Z,9.31
2023-01-10T06:52:48.714Z,9.26
2023-01-10T06:55:46.469Z,9.23
2023-01-10T06:58:43.921Z,9.20
2023-01-10T07:01:41.747Z,9.15
2023-01-10T07:04:39.191Z,9.12
2023-01-10T07:07:36.966Z,9.12
2023-01-10T07:10:34.825Z,9.15
2023-01-10T07:13:32.271Z,9.18
2023-01-10T07:16:30.092Z,9.19
2023-01-10T07:19:27.624Z,9.19
2023-01-10T07:22:25.386Z,9.17
2023-01-10T07:25:22.812Z,9.18
2023-01-10T07:28:20.509Z,9.20
2023-01-10T07:31:17.997Z,9.23
2023-01-10T07:34:16.461Z,9.23
2023-01-10T07:37:13.912Z,9.23
2023-01-10T07:40:11.695Z,9.23
2023-01-10T07:43:09.135Z,9.26
2023-01-10T07:46:08.561Z,9.29
2023-01-10T07:49:05.989Z,9.33
2023-01-10T07:52:03.782Z,9.37
2023-01-10T07:55:01.216Z,9.38
2023-01-10T07:58:00.132Z,9.38
2023-01-10T08:00:57.644Z,9.36
2023-01-10T08:03:55.488Z,9.35
2023-01-10T08:06:52.913Z,9.35
2023-01-10T08:09:50.609Z,9.35
2023-01-10T08:12:48.374Z,9.35
2023-01-10T08:15:47.705Z,9.38
2023-01-10T08:18:45.169Z,9.35
2023-01-10T08:21:42.873Z,9.33
2023-01-10T08:24:40.304Z,9.31
2023-01-10T08:27:38.010Z,9.30
2023-01-10T08:30:35.644Z,9.29
2023-01-10T08:33:33.136Z,9.41
2023-01-10T08:36:31.117Z,9.51
2023-01-10T08:39:28.551Z,9.51
2023-01-10T08:42:26.520Z,9.48
2023-01-10T08:45:23.945Z,9.46
2023-01-10T08:48:21.662Z,9.47
2023-01-10T08:51:19.139Z,9.51
2023-01-10T08:54:16.784Z,9.46
2023-01-10T08:57:14.234Z,9.49
2023-01-10T09:00:12.539Z,9.77
2023-01-10T09:03:10.371Z,9.89
2023-01-10T09:06:08.510Z,9.86
2023-01-10T09:09:06.548Z,9.99
2023-01-10T09:12:23.968Z,9.90
2023-01-10T09:15:22.038Z,9.81
2023-01-10T09:18:21.335Z,9.74
2023-01-10T09:21:19.803Z,9.71
2023-01-10T09:24:17.258Z,9.71
2023-01-10T09:27:14.852Z,9.58
2023-01-10T09:30:12.309Z,9.54
2023-01-10T09:33:10.170Z,9.59
2023-01-10T09:36:10.276Z,9.64
2023-01-10T09:39:07.787Z,9.68
2023-01-10T09:42:05.544Z,9.68
2023-01-10T09:45:02.972Z,9.68
2023-01-10T09:48:00.727Z,9.73
2023-01-10T09:50:58.164Z,9.71
2023-01-10T09:54:06.630Z,9.60
2023-01-10T09:57:07.976Z,9.55
2023-01-10T10:00:05.732Z,9.58
2023-01-10T10:03:03.634Z,9.79
2023-01-10T10:06:11.518Z,9.83
2023-01-10T10:09:09.896Z,9.70
2023-01-10T10:12:07.323Z,9.63
2023-01-10T10:15:05.637Z,9.75
2023-01-10T10:18:03.311Z,9.85
2023-01-10T10:21:00.746Z,9.83
2023-01-10T10:23:58.523Z,9.79
2023-01-10T10:26:55.984Z,9.80
2023-01-10T10:29:53.774Z,9.88
2023-01-10T10:32:51.835Z,9.82
2023-01-10T10:35:49.603Z,9.79
2023-01-10T10:38:47.345Z,9.78
2023-01-10T10:41:44.796Z,9.80
2023-01-10T10:44:42.505Z,9.82
2023-01-10T10:47:39.948Z,9.85
2023-01-10T10:50:38.221Z,9.88
2023-01-10T10:53:35.948Z,9.93
2023-01-10T10:56:33.393Z,9.96
2023-01-10T10:59:31.120Z,9.98
2023-01-10T11:02:28.546Z,9.99
2023-01-10T11:05:26.332Z,10.06
2023-01-10T11:08:24.176Z,10.14
2023-01-10T11:11:21.862Z,10.23
2023-01-10T11:14:19.842Z,10.28
2023-01-10T11:17:17.307Z,10.40
2023-01-10T11:20:14.974Z,10.56
2023-01-10T11:23:12.413Z,10.61
2023-01-10T11:26:10.117Z,10.57
2023-01-10T11:29:07.627Z,10.65
2023-01-10T11:32:06.013Z,10.80
2023-01-10T11:35:03.510Z,10.67
2023-01-10T11:38:01.885Z,10.30
2023-01-10T11:41:00.643Z,9.91
2023-01-10T11:43:58.062Z,9.62
2023-01-10T11:46:55.681Z,9.39
2023-01-10T11:49:53.215Z,9.38
2023-01-10T11:52:50.883Z,10.12
2023-01-10T11:55:48.321Z,10.57
2023-01-10T11:58:46.055Z,10.68
2023-01-10T12:01:43.736Z,10.91
2023-01-10T12:04:41.761Z,11.11
2023-01-10T12:07:39.461Z,10.73
2023-01-10T12:10:36.873Z,10.34
2023-01-10T12:13:34.577Z,10.08
2023-01-10T12:16:32.063Z,9.87
2023-01-10T12:19:29.712Z,9.69
2023-01-10T12:22:27.686Z,9.56
2023-01-10T12:25:25.156Z,9.44
2023-01-10T12:28:22.739Z,9.37
2023-01-10T12:31:20.488Z,9.29
2023-01-10T12:34:20.617Z,9.23
2023-01-10T12:37:18.060Z,9.18
2023-01-10T12:40:15.708Z,9.11
2023-01-10T12:43:31.414Z,9.06
2023-01-10T12:47:00.191Z,9.03
2023-01-10T12:49:46.504Z,9.01
2023-01-10T12:52:46.116Z,8.99
2023-01-10T12:55:43.525Z,8.96
2023-01-10T12:58:43.275Z,8.92
2023-01-10T13:01:42.499Z,8.91
2023-01-10T13:04:41.685Z,8.88
2023-01-10T13:07:39.103Z,8.85
2023-01-10T13:10:36.907Z,8.82
2023-01-10T13:13:35.207Z,8.79
2023-01-10T13:16:32.714Z,8.77
2023-01-10T13:19:30.421Z,8.77
2023-01-10T13:22:27.867Z,8.76
2023-01-10T13:25:25.654Z,8.72
2023-01-10T13:28:23.410Z,8.70
2023-01-10T13:31:20.863Z,8.68
2023-01-10T13:34:18.690Z,8.64
2023-01-10T13:37:16.132Z,8.60
2023-01-10T13:40:13.737Z,8.56
2023-01-10T13:43:20.179Z,8.52
2023-01-10T13:46:17.860Z,8.46
2023-01-10T13:49:15.349Z,8.40
2023-01-10T13:52:13.061Z,8.35
2023-01-10T13:55:10.471Z,8.31
2023-01-10T13:58:08.270Z,8.66
2023-01-10T14:01:23.689Z,9.25
2023-01-10T14:04:21.322Z,9.50
2023-01-10T14:07:19.072Z,9.69
2023-01-10T14:10:16.503Z,10.06
2023-01-10T14:13:14.162Z,10.06
2023-01-10T14:16:11.625Z,9.68
2023-01-10T14:19:09.549Z,9.32
2023-01-10T14:22:06.998Z,9.06
2023-01-10T14:25:04.752Z,8.86
2023-01-10T14:28:02.421Z,8.71
2023-01-10T14:30:59.873Z,8.57
2023-01-10T14:33:57.641Z,8.47
2023-01-10T14:36:55.101Z,8.39
2023-01-10T14:39:56.358Z,8.32
2023-01-10T14:42:56.049Z,8.26
2023-01-10T14:45:53.477Z,8.21
2023-01-10T14:48:51.855Z,8.14
2023-01-10T14:51:50.734Z,8.30
2023-01-10T14:54:48.440Z,9.13
2023-01-10T14:57:45.894Z,9.86
2023-01-10T15:00:43.692Z,9.94
2023-01-10T15:03:41.120Z,9.91
2023-01-10T15:06:38.756Z,9.92
2023-01-10T15:09:36.223Z,9.85
2023-01-10T15:12:33.690Z,9.79
2023-01-10T15:15:31.435Z,9.76
2023-01-10T15:18:29.123Z,9.76
2023-01-10T15:21:27.071Z,9.96
2023-01-10T15:24:24.954Z,10.28
2023-01-10T15:27:22.417Z,10.41
2023-01-10T15:30:20.127Z,10.56
2023-01-10T15:33:17.561Z,10.74
2023-01-10T15:36:15.205Z,10.90
2023-01-10T15:39:12.852Z,11.02
2023-01-10T15:42:10.725Z,11.11
2023-01-10T15:45:08.179Z,10.97
2023-01-10T15:48:06.299Z,10.81
2023-01-10T15:51:06.277Z,11.39
2023-01-10T15:54:07.609Z,12.73
2023-01-10T15:57:07.013Z,12.70
2023-01-10T16:00:04.451Z,11.58
2023-01-10T16:03:02.510Z,10.58
2023-01-10T16:05:59.990Z,9.90
2023-01-10T16:08:57.769Z,9.38
2023-01-10T16:12:13.169Z,8.96
2023-01-10T16:15:10.650Z,8.58
2023-01-10T16:18:08.489Z,8.28
2023-01-10T16:21:05.943Z,8.06
2023-01-10T16:24:03.690Z,7.87
2023-01-10T16:27:03.180Z,7.72
2023-01-10T16:30:00.977Z,8.28
2023-01-10T16:32:59.217Z,10.18
2023-01-10T16:35:56.677Z,10.88
2023-01-10T16:38:54.387Z,11.52
2023-01-10T16:42:09.747Z,11.24
2023-01-10T16:45:07.415Z,10.37
2023-01-10T16:48:04.853Z,9.70
2023-01-10T16:51:02.771Z,9.21
2023-01-10T16:54:00.372Z,8.84
2023-01-10T16:56:57.813Z,8.51
2023-01-10T16:59:55.643Z,8.27
2023-01-10T17:02:53.109Z,8.06
2023-01-10T17:05:51.292Z,7.90
2023-01-10T17:08:49.688Z,7.76
2023-01-10T17:11:47.564Z,8.27
2023-01-10T17:14:44.996Z,9.68
2023-01-10T17:17:45.425Z,10.20
2023-01-10T17:20:42.895Z,11.08
2023-01-10T17:23:42.187Z,11.14
2023-01-10T17:26:39.967Z,11.17
2023-01-10T17:29:37.423Z,10.99
2023-01-10T17:32:35.311Z,10.30
2023-01-10T17:35:33.199Z,9.63
2023-01-10T17:38:31.000Z,9.13
2023-01-10T17:41:28.479Z,8.73
2023-01-10T17:44:26.242Z,8.41
2023-01-10T17:47:23.691Z,8.15
2023-01-10T17:50:21.420Z,7.93
2023-01-10T17:53:19.467Z,7.75
2023-01-10T17:56:16.902Z,7.61
2023-01-10T17:59:14.507Z,7.46
2023-01-10T18:02:12.076Z,7.77
2023-01-10T18:05:10.163Z,9.49
2023-01-10T18:08:08.238Z,10.92
2023-01-10T18:11:06.274Z,11.44
2023-01-10T18:14:24.056Z,11.22
2023-01-10T18:17:21.590Z,10.29
2023-01-10T18:20:21.450Z,9.58
2023-01-10T18:23:26.137Z,9.07
2023-01-10T18:26:24.455Z,8.62
2023-01-10T18:29:22.184Z,8.27
2023-01-10T18:32:19.933Z,8.00
2023-01-10T18:35:17.394Z,7.77
2023-01-10T18:38:15.907Z,7.58
2023-01-10T18:41:16.049Z,7.40
2023-01-10T18:44:14.791Z,7.24
2023-01-10T18:47:12.756Z,7.14
2023-01-10T18:50:13.089Z,7.59
2023-01-10T18:53:11.513Z,9.65
2023-01-10T18:56:09.374Z,10.48
2023-01-10T18:59:07.722Z,10.76
2023-01-10T19:02:06.021Z,10.85
2023-01-10T19:05:08.638Z,11.28
2023-01-10T19:08:06.157Z,11.29
2023-01-10T19:11:13.555Z,10.41
2023-01-10T19:14:12.802Z,9.54
2023-01-10T19:17:11.625Z,8.91
2023-01-10T19:20:11.036Z,8.43
2023-01-10T19:23:09.601Z,8.04
2023-01-10T19:26:07.057Z,7.73
2023-01-10T19:29:07.086Z,7.44
2023-01-10T19:32:05.469Z,7.20
2023-01-10T19:35:04.579Z,7.01
2023-01-10T19:38:02.637Z,6.85
2023-01-10T19:41:00.996Z,6.95
2023-01-10T19:44:00.649Z,7.68
2023-01-10T19:46:58.763Z,7.96
2023-01-10T19:49:57.415Z,7.90
2023-01-10T19:52:56.345Z,7.84
2023-01-10T19:55:55.300Z,7.72
2023-01-10T19:58:54.113Z,7.78
2023-01-10T20:01:52.556Z,8.02
2023-01-10T20:04:50.591Z,8.91
2023-01-10T20:07:48.863Z,10.05
2023-01-10T20:10:47.939Z,11.10
2023-01-10T20:13:46.830Z,10.96
2023-01-10T20:16:45.674Z,10.04
2023-01-10T20:19:44.921Z,9.18
2023-01-10T20:22:46.298Z,8.54
2023-01-10T20:25:47.977Z,8.06
2023-01-10T20:28:46.543Z,7.68
2023-01-10T20:31:48.275Z,7.33
2023-01-10T20:34:48.001Z,7.02
2023-01-10T20:37:45.465Z,6.75
2023-01-10T20:40:43.764Z,6.55
2023-01-10T20:43:41.613Z,6.38
2023-01-10T20:46:40.299Z,6.24
2023-01-10T20:49:37.747Z,6.14
2023-01-10T20:52:35.737Z,6.05
2023-01-10T20:55:33.180Z,6.00
2023-01-10T20:58:31.148Z,5.97
2023-01-10T21:01:34.473Z,5.95
2023-01-10T21:04:33.520Z,5.94
2023-01-10T21:07:30.947Z,5.94
2023-01-10T21:10:28.770Z,5.93
2023-01-10T21:13:26.397Z,5.93
2023-01-10T21:16:25.570Z,5.93
2023-01-10T21:19:23.203Z,5.94
2023-01-10T21:22:21.058Z,6.33
2023-01-10T21:25:18.482Z,7.20
2023-01-10T21:28:16.301Z,8.50
2023-01-10T21:31:14.161Z,10.08
2023-01-10T21:34:12.747Z,11.19
2023-01-10T21:37:11.414Z,11.66
2023-01-10T21:40:09.858Z,10.70
2023-01-10T21:43:09.482Z,9.74
2023-01-10T21:46:09.370Z,9.05
2023-01-10T21:49:07.494Z,8.51
2023-01-10T21:52:06.235Z,8.11
2023-01-10T21:55:04.279Z,7.76
2023-01-10T21:58:03.329Z,7.47
2023-01-10T22:01:01.510Z,7.22
2023-01-10T22:04:00.328Z,7.01
2023-01-10T22:06:58.630Z,6.81
2023-01-10T22:09:58.766Z,6.65
2023-01-10T22:12:56.883Z,6.52
2023-01-10T22:15:54.950Z,6.42
2023-01-10T22:18:52.949Z,6.33
2023-01-10T22:21:50.391Z,6.23
2023-01-10T22:24:48.514Z,6.15
2023-01-10T22:27:45.957Z,6.06
2023-01-10T22:30:43.820Z,5.98
2023-01-10T22:33:42.869Z,5.91
2023-01-10T22:36:40.926Z,5.85
2023-01-10T22:39:38.873Z,5.78
2023-01-10T22:42:36.309Z,5.74
2023-01-10T22:45:34.344Z,5.69
2023-01-10T22:48:31.809Z,5.65
2023-01-10T22:51:31.352Z,5.61
2023-01-10T22:54:28.789Z,5.58
2023-01-10T22:57:28.771Z,5.55
2023-01-10T23:00:26.360Z,5.51
2023-01-10T23:03:24.076Z,5.49
2023-01-10T23:06:21.520Z,5.46
2023-01-10T23:09:19.017Z,5.44
2023-01-10T23:12:17.423Z,5.43
2023-01-10T23:15:14.913Z,5.40
2023-01-10T23:18:12.709Z,5.38
2023-01-10T23:21:10.082Z,5.36
2023-01-10T23:24:08.001Z,5.35
2023-01-10T23:27:05.383Z,5.35
2023-01-10T23:30:03.127Z,5.35
2023-01-10T23:33:00.480Z,5.34
2023-01-10T23:35:58.262Z,5.33
2023-01-10T23:38:55.673Z,5.31
2023-01-10T23:41:53.576Z,5.29
2023-01-10T23:44:50.959Z,5.28
2023-01-10T23:47:49.046Z,5.25
2023-01-10T23:50:46.420Z,5.25
2023-01-10T23:53:44.320Z,5.23
2023-01-10T23:56:41.681Z,5.21
2023-01-10T23:59:39.555Z,5.46
